sensor_id;sensor_type;location;lat;lon;timestamp;pressure;altitude;pressure_sealevel;temperature;humidity
73171;BME280;61381;50.118;19.962;2023-09-12T00:01:06;98267.34;;;18.18;100.00
73171;BME280;61381;50.118;19.962;2023-09-12T00:06:09;98261.16;;;18.06;100.00
73171;BME280;61381;50.118;19.962;2023-09-12T00:11:12;98261.94;;;17.94;100.00
73171;BME280;61381;50.118;19.962;2023-09-12T00:16:13;98263.53;;;17.95;100.00
73171;BME280;61381;50.118;19.962;2023-09-12T00:21:14;98268.13;;;18.19;100.00
73171;BME280;61381;50.118;19.962;2023-09-12T00:26:16;98267.69;;;18.29;100.00
73171;BME280;61381;50.118;19.962;2023-09-12T00:31:17;98267.69;;;17.92;100.00
73171;BME280;61381;50.118;19.962;2023-09-12T00:36:18;98263.19;;;18.09;100.00
73171;BME280;61381;50.118;19.962;2023-09-12T00:41:23;98270.16;;;18.10;100.00
73171;BME280;61381;50.118;19.962;2023-09-12T00:46:24;98272.44;;;18.20;100.00
73171;BME280;61381;50.118;19.962;2023-09-12T00:51:27;98262.03;;;18.22;100.00
73171;BME280;61381;50.118;19.962;2023-09-12T00:56:29;98276.38;;;18.47;100.00
73171;BME280;61381;50.118;19.962;2023-09-12T01:01:31;98262.25;;;18.17;100.00
73171;BME280;61381;50.118;19.962;2023-09-12T01:06:33;98266.22;;;18.20;100.00
73171;BME280;61381;50.118;19.962;2023-09-12T01:11:36;98255.16;;;18.12;100.00
73171;BME280;61381;50.118;19.962;2023-09-12T01:16:37;98245.56;;;18.03;100.00
73171;BME280;61381;50.118;19.962;2023-09-12T01:21:55;98248.69;;;17.80;100.00
73171;BME280;61381;50.118;19.962;2023-09-12T01:27:18;98253.38;;;17.92;100.00
73171;BME280;61381;50.118;19.962;2023-09-12T01:32:20;98253.41;;;17.58;100.00
73171;BME280;61381;50.118;19.962;2023-09-12T01:37:21;98255.22;;;17.67;100.00
73171;BME280;61381;50.118;19.962;2023-09-12T01:42:24;98259.09;;;17.78;100.00
73171;BME280;61381;50.118;19.962;2023-09-12T01:47:28;98254.94;;;17.93;100.00
73171;BME280;61381;50.118;19.962;2023-09-12T01:52:30;98257.34;;;17.61;100.00
73171;BME280;61381;50.118;19.962;2023-09-12T01:57:33;98259.38;;;17.52;100.00
73171;BME280;61381;50.118;19.962;2023-09-12T02:02:34;98259.72;;;17.62;100.00
73171;BME280;61381;50.118;19.962;2023-09-12T02:07:38;98266.50;;;17.69;100.00
73171;BME280;61381;50.118;19.962;2023-09-12T02:12:41;98258.84;;;17.83;100.00
73171;BME280;61381;50.118;19.962;2023-09-12T02:17:41;98259.47;;;17.89;100.00
73171;BME280;61381;50.118;19.962;2023-09-12T02:22:42;98258.53;;;17.85;100.00
73171;BME280;61381;50.118;19.962;2023-09-12T02:27:45;98254.63;;;17.61;100.00
73171;BME280;61381;50.118;19.962;2023-09-12T02:32:45;98253.00;;;17.81;100.00
73171;BME280;61381;50.118;19.962;2023-09-12T02:37:46;98250.13;;;17.53;100.00
73171;BME280;61381;50.118;19.962;2023-09-12T02:42:49;98247.84;;;17.09;100.00
73171;BME280;61381;50.118;19.962;2023-09-12T02:47:49;98246.28;;;17.08;100.00
73171;BME280;61381;50.118;19.962;2023-09-12T02:52:50;98260.94;;;17.40;100.00
73171;BME280;61381;50.118;19.962;2023-09-12T02:57:53;98261.50;;;17.34;100.00
73171;BME280;61381;50.118;19.962;2023-09-12T03:02:53;98257.56;;;17.10;100.00
73171;BME280;61381;50.118;19.962;2023-09-12T03:07:54;98258.19;;;16.94;100.00
73171;BME280;61381;50.118;19.962;2023-09-12T03:12:56;98253.22;;;17.30;100.00
73171;BME280;61381;50.118;19.962;2023-09-12T03:17:57;98259.44;;;17.31;100.00
73171;BME280;61381;50.118;19.962;2023-09-12T03:22:58;98259.22;;;17.02;100.00
73171;BME280;61381;50.118;19.962;2023-09-12T03:28:01;98252.19;;;17.22;100.00
73171;BME280;61381;50.118;19.962;2023-09-12T03:33:02;98258.66;;;17.30;100.00
73171;BME280;61381;50.118;19.962;2023-09-12T03:38:03;98257.75;;;17.26;100.00
73171;BME280;61381;50.118;19.962;2023-09-12T03:43:05;98257.16;;;17.20;100.00
73171;BME280;61381;50.118;19.962;2023-09-12T03:48:06;98271.66;;;17.37;100.00
73171;BME280;61381;50.118;19.962;2023-09-12T03:53:08;98266.72;;;17.51;100.00
73171;BME280;61381;50.118;19.962;2023-09-12T03:58:10;98268.66;;;17.17;100.00
73171;BME280;61381;50.118;19.962;2023-09-12T04:03:11;98269.94;;;16.99;100.00
73171;BME280;61381;50.118;19.962;2023-09-12T04:08:12;98273.28;;;16.74;100.00
73171;BME280;61381;50.118;19.962;2023-09-12T04:13:14;98267.75;;;16.71;100.00
73171;BME280;61381;50.118;19.962;2023-09-12T04:18:15;98264.78;;;16.64;100.00
73171;BME280;61381;50.118;19.962;2023-09-12T04:23:16;98269.84;;;16.65;100.00
73171;BME280;61381;50.118;19.962;2023-09-12T04:28:18;98269.03;;;16.86;100.00
73171;BME280;61381;50.118;19.962;2023-09-12T04:33:19;98276.44;;;16.76;100.00
73171;BME280;61381;50.118;19.962;2023-09-12T04:38:20;98276.38;;;16.64;100.00
73171;BME280;61381;50.118;19.962;2023-09-12T04:43:22;98276.19;;;16.48;100.00
73171;BME280;61381;50.118;19.962;2023-09-12T04:48:23;98273.88;;;16.80;100.00
73171;BME280;61381;50.118;19.962;2023-09-12T04:53:24;98278.19;;;17.02;100.00
73171;BME280;61381;50.118;19.962;2023-09-12T04:58:26;98275.28;;;17.53;100.00
73171;BME280;61381;50.118;19.962;2023-09-12T05:03:27;98282.59;;;18.11;100.00
73171;BME280;61381;50.118;19.962;2023-09-12T05:08:28;98289.03;;;18.18;100.00
73171;BME280;61381;50.118;19.962;2023-09-12T05:13:30;98296.84;;;18.20;100.00
73171;BME280;61381;50.118;19.962;2023-09-12T05:18:31;98291.50;;;19.90;100.00
73171;BME280;61381;50.118;19.962;2023-09-12T05:23:32;98298.69;;;19.82;100.00
73171;BME280;61381;50.118;19.962;2023-09-12T05:28:35;98305.47;;;19.60;100.00
73171;BME280;61381;50.118;19.962;2023-09-12T05:33:35;98301.56;;;19.29;100.00
73171;BME280;61381;50.118;19.962;2023-09-12T05:38:37;98313.91;;;19.55;100.00
73171;BME280;61381;50.118;19.962;2023-09-12T05:43:42;98312.22;;;19.66;100.00
73171;BME280;61381;50.118;19.962;2023-09-12T05:48:43;98311.47;;;19.66;100.00
73171;BME280;61381;50.118;19.962;2023-09-12T05:53:44;98313.53;;;19.85;100.00
73171;BME280;61381;50.118;19.962;2023-09-12T05:58:46;98319.84;;;19.89;100.00
73171;BME280;61381;50.118;19.962;2023-09-12T06:03:47;98315.13;;;20.53;100.00
73171;BME280;61381;50.118;19.962;2023-09-12T06:08:48;98314.78;;;21.29;100.00
73171;BME280;61381;50.118;19.962;2023-09-12T06:13:50;98318.44;;;21.57;100.00
73171;BME280;61381;50.118;19.962;2023-09-12T06:18:51;98323.06;;;21.56;100.00
73171;BME280;61381;50.118;19.962;2023-09-12T06:24:08;98334.41;;;21.78;100.00
73171;BME280;61381;50.118;19.962;2023-09-12T06:29:11;98335.03;;;21.94;100.00
73171;BME280;61381;50.118;19.962;2023-09-12T06:34:12;98339.34;;;22.41;100.00
73171;BME280;61381;50.118;19.962;2023-09-12T06:39:13;98338.16;;;22.96;100.00
73171;BME280;61381;50.118;19.962;2023-09-12T06:44:15;98340.75;;;22.85;100.00
73171;BME280;61381;50.118;19.962;2023-09-12T06:49:16;98331.06;;;22.91;100.00
73171;BME280;61381;50.118;19.962;2023-09-12T06:54:17;98339.34;;;22.68;100.00
73171;BME280;61381;50.118;19.962;2023-09-12T06:59:19;98342.16;;;22.75;100.00
73171;BME280;61381;50.118;19.962;2023-09-12T07:04:20;98343.44;;;23.12;100.00
73171;BME280;61381;50.118;19.962;2023-09-12T07:09:21;98350.53;;;23.17;100.00
73171;BME280;61381;50.118;19.962;2023-09-12T07:14:23;98353.75;;;23.60;98.95
73171;BME280;61381;50.118;19.962;2023-09-12T07:19:24;98348.97;;;23.87;95.15
73171;BME280;61381;50.118;19.962;2023-09-12T07:24:25;98351.19;;;24.19;93.86
73171;BME280;61381;50.118;19.962;2023-09-12T07:29:27;98351.28;;;24.33;94.04
73171;BME280;61381;50.118;19.962;2023-09-12T07:34:28;98348.28;;;23.97;96.18
73171;BME280;61381;50.118;19.962;2023-09-12T07:39:29;98358.03;;;23.95;94.65
73171;BME280;61381;50.118;19.962;2023-09-12T07:44:31;98348.94;;;24.32;92.91
73171;BME280;61381;50.118;19.962;2023-09-12T07:49:32;98342.53;;;24.13;93.18
73171;BME280;61381;50.118;19.962;2023-09-12T07:54:33;98346.34;;;24.50;93.02
73171;BME280;61381;50.118;19.962;2023-09-12T07:59:35;98351.91;;;24.61;91.87
73171;BME280;61381;50.118;19.962;2023-09-12T08:04:36;98352.41;;;24.77;89.55
73171;BME280;61381;50.118;19.962;2023-09-12T08:09:52;98347.88;;;25.10;87.83
73171;BME280;61381;50.118;19.962;2023-09-12T08:14:55;98352.34;;;25.54;86.00
73171;BME280;61381;50.118;19.962;2023-09-12T08:19:56;98361.44;;;25.76;87.13
73171;BME280;61381;50.118;19.962;2023-09-12T08:24:57;98362.66;;;26.26;84.31
73171;BME280;61381;50.118;19.962;2023-09-12T08:43:10;98356.38;;;26.68;79.81
73171;BME280;61381;50.118;19.962;2023-09-12T08:48:11;98357.16;;;26.62;79.07
73171;BME280;61381;50.118;19.962;2023-09-12T08:53:13;98366.97;;;26.77;77.91
73171;BME280;61381;50.118;19.962;2023-09-12T08:58:15;98365.75;;;26.82;nan
73171;BME280;61381;50.118;19.962;2023-09-12T09:03:18;98362.19;;;26.88;73.99
73171;BME280;61381;50.118;19.962;2023-09-12T09:08:21;98365.84;;;27.59;67.91
73171;BME280;61381;50.118;19.962;2023-09-12T09:13:25;98351.22;;;28.29;68.67
73171;BME280;61381;50.118;19.962;2023-09-12T09:18:25;98352.84;;;28.23;66.55
73171;BME280;61381;50.118;19.962;2023-09-12T09:23:26;98356.16;;;28.91;62.24
73171;BME280;61381;50.118;19.962;2023-09-12T09:28:29;98355.03;;;29.23;58.83
73171;BME280;61381;50.118;19.962;2023-09-12T09:33:34;98355.38;;;29.86;55.26
73171;BME280;61381;50.118;19.962;2023-09-12T09:38:36;98351.22;;;29.71;53.46
73171;BME280;61381;50.118;19.962;2023-09-12T09:43:38;98362.88;;;30.33;49.67
73171;BME280;61381;50.118;19.962;2023-09-12T09:48:48;98351.03;;;30.09;45.89
73171;BME280;61381;50.118;19.962;2023-09-12T09:53:51;98347.59;;;30.52;45.27
73171;BME280;61381;50.118;19.962;2023-09-12T09:58:54;98347.41;;;30.83;46.07
73171;BME280;61381;50.118;19.962;2023-09-12T10:03:57;98342.69;;;30.36;49.32
73171;BME280;61381;50.118;19.962;2023-09-12T10:08:59;98343.59;;;30.53;49.15
73171;BME280;61381;50.118;19.962;2023-09-12T10:14:03;98347.28;;;30.47;49.01
73171;BME280;61381;50.118;19.962;2023-09-12T10:19:10;98339.16;;;30.36;47.10
73171;BME280;61381;50.118;19.962;2023-09-12T10:24:14;98343.50;;;30.61;45.93
73171;BME280;61381;50.118;19.962;2023-09-12T10:29:16;98334.44;;;30.13;48.64
73171;BME280;61381;50.118;19.962;2023-09-12T10:34:18;98333.84;;;30.89;46.64
73171;BME280;61381;50.118;19.962;2023-09-12T10:39:22;98333.72;;;30.76;48.55
73171;BME280;61381;50.118;19.962;2023-09-12T10:44:25;98327.41;;;30.75;48.60
73171;BME280;61381;50.118;19.962;2023-09-12T10:49:27;98326.81;;;30.64;48.55
73171;BME280;61381;50.118;19.962;2023-09-12T10:54:36;98330.22;;;30.72;48.15
73171;BME280;61381;50.118;19.962;2023-09-12T11:00:11;98321.91;;;30.52;52.74
73171;BME280;61381;50.118;19.962;2023-09-12T11:05:34;98326.44;;;31.06;51.14
73171;BME280;61381;50.118;19.962;2023-09-12T11:10:36;98326.81;;;30.84;50.21
73171;BME280;61381;50.118;19.962;2023-09-12T11:16:10;98329.38;;;31.35;47.93
73171;BME280;61381;50.118;19.962;2023-09-12T11:21:12;98317.25;;;30.69;45.78
73171;BME280;61381;50.118;19.962;2023-09-12T11:26:13;98322.19;;;31.01;46.58
73171;BME280;61381;50.118;19.962;2023-09-12T11:31:25;98325.66;;;31.05;46.71
73171;BME280;61381;50.118;19.962;2023-09-12T11:36:26;98315.44;;;31.02;47.28
73171;BME280;61381;50.118;19.962;2023-09-12T11:41:39;98319.19;;;31.12;47.75
73171;BME280;61381;50.118;19.962;2023-09-12T11:46:42;98315.22;;;31.13;42.36
73171;BME280;61381;50.118;19.962;2023-09-12T11:51:48;98314.09;;;30.23;42.12
73171;BME280;61381;50.118;19.962;2023-09-12T11:56:49;98312.41;;;30.53;46.41
73171;BME280;61381;50.118;19.962;2023-09-12T12:01:51;98315.44;;;31.02;39.39
73171;BME280;61381;50.118;19.962;2023-09-12T12:06:52;98314.50;;;31.45;41.86
73171;BME280;61381;50.118;19.962;2023-09-12T12:11:53;98314.81;;;30.27;42.92
73171;BME280;61381;50.118;19.962;2023-09-12T12:16:56;98298.03;;;30.41;44.92
73171;BME280;61381;50.118;19.962;2023-09-12T12:21:57;98302.22;;;30.02;49.50
73171;BME280;61381;50.118;19.962;2023-09-12T12:27:00;98295.63;;;29.69;49.15
73171;BME280;61381;50.118;19.962;2023-09-12T12:32:02;98305.34;;;30.04;48.24
73171;BME280;61381;50.118;19.962;2023-09-12T12:37:03;98296.03;;;30.62;47.46
73171;BME280;61381;50.118;19.962;2023-09-12T12:42:05;98286.91;;;31.05;46.14
73171;BME280;61381;50.118;19.962;2023-09-12T12:47:08;98289.81;;;30.34;47.37
73171;BME280;61381;50.118;19.962;2023-09-12T12:52:09;98286.59;;;30.16;49.10
73171;BME280;61381;50.118;19.962;2023-09-12T12:57:11;98278.22;;;29.72;50.23
73171;BME280;61381;50.118;19.962;2023-09-12T13:02:14;98281.44;;;30.62;48.68
73171;BME280;61381;50.118;19.962;2023-09-12T13:07:15;98286.41;;;30.03;49.13
73171;BME280;61381;50.118;19.962;2023-09-12T13:12:16;98273.16;;;29.94;49.85
73171;BME280;61381;50.118;19.962;2023-09-12T13:17:18;98282.03;;;30.05;49.43
73171;BME280;61381;50.118;19.962;2023-09-12T13:22:19;98273.75;;;29.82;50.91
73171;BME280;61381;50.118;19.962;2023-09-12T13:27:20;98271.13;;;30.18;47.96
73171;BME280;61381;50.118;19.962;2023-09-12T13:58:30;98279.28;;;30.05;47.87
73171;BME280;61381;50.118;19.962;2023-09-12T14:03:31;98274.75;;;29.68;47.97
73171;BME280;61381;50.118;19.962;2023-09-12T14:08:32;98278.13;;;30.03;48.43
73171;BME280;61381;50.118;19.962;2023-09-12T14:13:34;98274.56;;;30.26;47.38
73171;BME280;61381;50.118;19.962;2023-09-12T14:18:35;98275.50;;;29.96;49.09
73171;BME280;61381;50.118;19.962;2023-09-12T14:23:36;98274.59;;;30.02;49.08
73171;BME280;61381;50.118;19.962;2023-09-12T14:28:38;98282.16;;;29.98;49.15
73171;BME280;61381;50.118;19.962;2023-09-12T14:33:39;98275.66;;;30.32;48.79
73171;BME280;61381;50.118;19.962;2023-09-12T14:38:40;98270.31;;;30.45;46.82
73171;BME280;61381;50.118;19.962;2023-09-12T14:43:42;98265.75;;;30.55;46.33
73171;BME280;61381;50.118;19.962;2023-09-12T14:48:43;98265.91;;;30.48;45.49
73171;BME280;61381;50.118;19.962;2023-09-12T14:53:44;98274.44;;;30.77;44.44
73171;BME280;61381;50.118;19.962;2023-09-12T14:58:46;98271.72;;;30.53;46.55
73171;BME280;61381;50.118;19.962;2023-09-12T15:03:47;98277.09;;;30.17;47.92
73171;BME280;61381;50.118;19.962;2023-09-12T15:08:48;98280.88;;;30.03;48.17
73171;BME280;61381;50.118;19.962;2023-09-12T15:13:51;98272.59;;;29.79;49.10
73171;BME280;61381;50.118;19.962;2023-09-12T15:18:52;98278.69;;;29.67;48.01
73171;BME280;61381;50.118;19.962;2023-09-12T15:23:53;98267.72;;;29.63;48.96
73171;BME280;61381;50.118;19.962;2023-09-12T15:28:56;98262.88;;;29.95;49.72
73171;BME280;61381;50.118;19.962;2023-09-12T15:33:57;98261.19;;;30.01;50.12
73171;BME280;61381;50.118;19.962;2023-09-12T15:38:57;98261.91;;;29.54;51.73
73171;BME280;61381;50.118;19.962;2023-09-12T15:44:00;98271.03;;;29.51;52.31
73171;BME280;61381;50.118;19.962;2023-09-12T15:49:02;98266.06;;;29.42;52.65
73171;BME280;61381;50.118;19.962;2023-09-12T15:54:03;98262.72;;;29.27;53.28
73171;BME280;61381;50.118;19.962;2023-09-12T15:59:05;98264.38;;;29.21;53.50
73171;BME280;61381;50.118;19.962;2023-09-12T16:04:06;98258.09;;;29.21;54.08
73171;BME280;61381;50.118;19.962;2023-09-12T16:09:07;98266.09;;;29.08;55.34
73171;BME280;61381;50.118;19.962;2023-09-12T16:14:10;98254.16;;;28.87;55.82
73171;BME280;61381;50.118;19.962;2023-09-12T16:19:11;98259.16;;;28.65;58.84
73171;BME280;61381;50.118;19.962;2023-09-12T16:24:12;98252.41;;;28.32;61.60
73171;BME280;61381;50.118;19.962;2023-09-12T16:29:14;98251.59;;;27.89;65.09
73171;BME280;61381;50.118;19.962;2023-09-12T16:34:15;98250.69;;;27.54;67.28
73171;BME280;61381;50.118;19.962;2023-09-12T16:39:16;98247.38;;;27.14;72.51
73171;BME280;61381;50.118;19.962;2023-09-12T16:44:18;98248.38;;;26.72;76.01
73171;BME280;61381;50.118;19.962;2023-09-12T16:49:19;98244.59;;;26.15;79.48
73171;BME280;61381;50.118;19.962;2023-09-12T16:54:20;98243.00;;;25.63;82.50
73171;BME280;61381;50.118;19.962;2023-09-12T16:59:22;98242.13;;;25.09;81.17
73171;BME280;61381;50.118;19.962;2023-09-12T17:04:23;98245.97;;;24.86;81.50
73171;BME280;61381;50.118;19.962;2023-09-12T17:09:24;98244.59;;;24.48;87.02
73171;BME280;61381;50.118;19.962;2023-09-12T17:14:26;98241.69;;;24.15;89.70
73171;BME280;61381;50.118;19.962;2023-09-12T17:19:27;98244.59;;;23.85;92.40
73171;BME280;61381;50.118;19.962;2023-09-12T17:24:28;98239.06;;;23.37;92.78
73171;BME280;61381;50.118;19.962;2023-09-12T17:29:31;98244.38;;;23.19;92.38
73171;BME280;61381;50.118;19.962;2023-09-12T17:34:37;98247.25;;;22.99;94.09
73171;BME280;61381;50.118;19.962;2023-09-12T17:39:39;98238.84;;;22.81;97.28
73171;BME280;61381;50.118;19.962;2023-09-12T17:44:41;98242.03;;;22.56;99.69
73171;BME280;61381;50.118;19.962;2023-09-12T17:49:42;98246.38;;;22.31;98.92
73171;BME280;61381;50.118;19.962;2023-09-12T17:54:43;98247.88;;;22.01;100.00
73171;BME280;61381;50.118;19.962;2023-09-12T17:59:45;98244.84;;;21.83;100.00
73171;BME280;61381;50.118;19.962;2023-09-12T18:04:46;98250.38;;;21.64;100.00
73171;BME280;61381;50.118;19.962;2023-09-12T18:09:47;98262.88;;;21.45;100.00
73171;BME280;61381;50.118;19.962;2023-09-12T18:14:49;98266.50;;;21.30;100.00
73171;BME280;61381;50.118;19.962;2023-09-12T18:19:50;98270.13;;;21.14;100.00
73171;BME280;61381;50.118;19.962;2023-09-12T18:24:52;98270.47;;;20.93;100.00
73171;BME280;61381;50.118;19.962;2023-09-12T18:29:54;98267.53;;;20.63;100.00
73171;BME280;61381;50.118;19.962;2023-09-12T18:34:55;98269.72;;;20.57;100.00
73171;BME280;61381;50.118;19.962;2023-09-12T18:39:56;98268.22;;;20.60;100.00
73171;BME280;61381;50.118;19.962;2023-09-12T18:44:58;98260.28;;;20.35;100.00
73171;BME280;61381;50.118;19.962;2023-09-12T18:49:59;98262.50;;;20.29;100.00
73171;BME280;61381;50.118;19.962;2023-09-12T18:55:03;98258.75;;;20.18;100.00
73171;BME280;61381;50.118;19.962;2023-09-12T19:00:07;98266.16;;;20.02;100.00
73171;BME280;61381;50.118;19.962;2023-09-12T19:05:08;98272.03;;;20.04;100.00
73171;BME280;61381;50.118;19.962;2023-09-12T19:10:09;98265.28;;;19.98;100.00
73171;BME280;61381;50.118;19.962;2023-09-12T19:15:11;98257.22;;;19.85;100.00
73171;BME280;61381;50.118;19.962;2023-09-12T19:20:13;98258.19;;;19.77;100.00
73171;BME280;61381;50.118;19.962;2023-09-12T19:25:14;98269.91;;;19.65;100.00
73171;BME280;61381;50.118;19.962;2023-09-12T19:30:16;98258.22;;;19.49;100.00
73171;BME280;61381;50.118;19.962;2023-09-12T19:35:18;98255.84;;;19.47;100.00
73171;BME280;61381;50.118;19.962;2023-09-12T19:40:19;98258.94;;;19.46;100.00
73171;BME280;61381;50.118;19.962;2023-09-12T19:45:21;98246.13;;;19.46;100.00
73171;BME280;61381;50.118;19.962;2023-09-12T19:50:22;98255.31;;;19.41;100.00
73171;BME280;61381;50.118;19.962;2023-09-12T19:55:23;98253.19;;;19.19;100.00
73171;BME280;61381;50.118;19.962;2023-09-12T20:00:25;98249.44;;;18.95;100.00
73171;BME280;61381;50.118;19.962;2023-09-12T20:05:26;98253.19;;;18.91;100.00
73171;BME280;61381;50.118;19.962;2023-09-12T20:10:27;98263.97;;;18.87;100.00
73171;BME280;61381;50.118;19.962;2023-09-12T20:15:32;98257.31;;;18.72;100.00
73171;BME280;61381;50.118;19.962;2023-09-12T20:20:33;98263.50;;;18.72;100.00
73171;BME280;61381;50.118;19.962;2023-09-12T20:25:35;98261.00;;;18.80;100.00
73171;BME280;61381;50.118;19.962;2023-09-12T20:30:37;98252.78;;;18.76;100.00
73171;BME280;61381;50.118;19.962;2023-09-12T20:35:38;98253.84;;;18.59;100.00
73171;BME280;61381;50.118;19.962;2023-09-12T20:40:39;98256.94;;;18.45;100.00
73171;BME280;61381;50.118;19.962;2023-09-12T20:45:41;98262.00;;;18.47;100.00
73171;BME280;61381;50.118;19.962;2023-09-12T20:50:42;98266.75;;;18.38;100.00
73171;BME280;61381;50.118;19.962;2023-09-12T20:55:44;98263.50;;;18.32;100.00
73171;BME280;61381;50.118;19.962;2023-09-12T21:00:46;98267.53;;;18.50;100.00
73171;BME280;61381;50.118;19.962;2023-09-12T21:05:47;98262.22;;;18.42;100.00
73171;BME280;61381;50.118;19.962;2023-09-12T21:10:48;98269.81;;;18.36;100.00
73171;BME280;61381;50.118;19.962;2023-09-12T21:15:51;98273.00;;;18.26;100.00
73171;BME280;61381;50.118;19.962;2023-09-12T21:20:52;98271.19;;;18.17;100.00
73171;BME280;61381;50.118;19.962;2023-09-12T21:25:53;98270.16;;;18.10;100.00
73171;BME280;61381;50.118;19.962;2023-09-12T21:30:56;98273.56;;;17.94;100.00
73171;BME280;61381;50.118;19.962;2023-09-12T21:35:56;98271.09;;;17.89;100.00
73171;BME280;61381;50.118;19.962;2023-09-12T21:40:57;98271.28;;;17.84;100.00
73171;BME280;61381;50.118;19.962;2023-09-12T21:46:00;98283.00;;;17.76;100.00
73171;BME280;61381;50.118;19.962;2023-09-12T21:51:01;98277.81;;;17.71;100.00
73171;BME280;61381;50.118;19.962;2023-09-12T21:56:02;98280.03;;;17.69;100.00
73171;BME280;61381;50.118;19.962;2023-09-12T22:01:04;98283.66;;;17.60;100.00
73171;BME280;61381;50.118;19.962;2023-09-12T22:06:05;98282.75;;;17.56;100.00
73171;BME280;61381;50.118;19.962;2023-09-12T22:11:07;98281.63;;;17.57;100.00
73171;BME280;61381;50.118;19.962;2023-09-12T22:16:09;98286.25;;;17.57;100.00
73171;BME280;61381;50.118;19.962;2023-09-12T22:21:10;98286.78;;;17.50;100.00
73171;BME280;61381;50.118;19.962;2023-09-12T22:26:12;98283.03;;;17.42;100.00
73171;BME280;61381;50.118;19.962;2023-09-12T22:31:14;98284.59;;;17.31;100.00
73171;BME280;61381;50.118;19.962;2023-09-12T22:36:15;98283.13;;;17.21;100.00
73171;BME280;61381;50.118;19.962;2023-09-12T22:41:16;98287.91;;;17.37;100.00
73171;BME280;61381;50.118;19.962;2023-09-12T22:46:19;98288.97;;;17.23;100.00
73171;BME280;61381;50.118;19.962;2023-09-12T22:51:19;98282.63;;;17.19;100.00
73171;BME280;61381;50.118;19.962;2023-09-12T22:56:20;98279.69;;;17.12;100.00
73171;BME280;61381;50.118;19.962;2023-09-12T23:01:23;98276.25;;;17.03;100.00
73171;BME280;61381;50.118;19.962;2023-09-12T23:06:24;98268.09;;;16.90;100.00
73171;BME280;61381;50.118;19.962;2023-09-12T23:11:24;98259.38;;;16.85;100.00
73171;BME280;61381;50.118;19.962;2023-09-12T23:16:27;98259.88;;;16.78;100.00
73171;BME280;61381;50.118;19.962;2023-09-12T23:21:28;98256.13;;;16.70;100.00
73171;BME280;61381;50.118;19.962;2023-09-12T23:26:28;98258.78;;;16.79;100.00
73171;BME280;61381;50.118;19.962;2023-09-12T23:31:31;98242.66;;;16.83;100.00
73171;BME280;61381;50.118;19.962;2023-09-12T23:36:32;98245.69;;;16.81;100.00
73171;BME280;61381;50.118;19.962;2023-09-12T23:41:33;98244.53;;;16.70;100.00
73171;BME280;61381;50.118;19.962;2023-09-12T23:46:35;98235.22;;;17.01;100.00
73171;BME280;61381;50.118;19.962;2023-09-12T23:51:36;98241.63;;;16.96;100.00
73171;BME280;61381;50.118;19.962;2023-09-12T23:56:37;98240.63;;;16.80;100.00
